sensor_id;sensor_type;location;lat;lon;timestamp;P1;durP1;ratioP1;P2;durP2;ratioP2
46377;SDS011;32083;47.360;9.650;2022-12-07T00:01:22;25.45;;;18.35;;
46377;SDS011;32083;47.360;9.650;2022-12-07T00:03:50;26.83;;;19.17;;
46377;SDS011;32083;47.360;9.650;2022-12-07T00:06:17;27.10;;;20.10;;
46377;SDS011;32083;47.360;9.650;2022-12-07T00:08:44;24.27;;;19.75;;
46377;SDS011;32083;47.360;9.650;2022-12-07T00:11:12;21.30;;;16.23;;
46377;SDS011;32083;47.360;9.650;2022-12-07T00:13:43;25.30;;;16.92;;
46377;SDS011;32083;47.360;9.650;2022-12-07T00:16:15;23.13;;;17.63;;
46377;SDS011;32083;47.360;9.650;2022-12-07T00:18:42;23.20;;;17.38;;
46377;SDS011;32083;47.360;9.650;2022-12-07T00:21:10;24.92;;;17.63;;
46377;SDS011;32083;47.360;9.650;2022-12-07T00:23:42;25.67;;;19.25;;
46377;SDS011;32083;47.360;9.650;2022-12-07T00:26:12;25.40;;;18.02;;
46377;SDS011;32083;47.360;9.650;2022-12-07T00:28:40;20.67;;;14.88;;
46377;SDS011;32083;47.360;9.650;2022-12-07T00:31:07;14.32;;;10.93;;
46377;SDS011;32083;47.360;9.650;2022-12-07T00:33:37;14.68;;;10.80;;
46377;SDS011;32083;47.360;9.650;2022-12-07T00:36:07;13.85;;;10.25;;
46377;SDS011;32083;47.360;9.650;2022-12-07T00:38:35;11.10;;;8.65;;
46377;SDS011;32083;47.360;9.650;2022-12-07T00:41:03;10.90;;;8.25;;
46377;SDS011;32083;47.360;9.650;2022-12-07T00:43:30;13.13;;;9.30;;
46377;SDS011;32083;47.360;9.650;2022-12-07T00:45:56;17.30;;;11.25;;
46377;SDS011;32083;47.360;9.650;2022-12-07T00:48:22;14.10;;;11.82;;
46377;SDS011;32083;47.360;9.650;2022-12-07T00:50:48;18.98;;;12.63;;
46377;SDS011;32083;47.360;9.650;2022-12-07T00:53:14;18.13;;;12.75;;
46377;SDS011;32083;47.360;9.650;2022-12-07T00:55:41;17.10;;;13.35;;
46377;SDS011;32083;47.360;9.650;2022-12-07T00:58:07;15.32;;;11.98;;
46377;SDS011;32083;47.360;9.650;2022-12-07T01:00:34;11.10;;;9.13;;
46377;SDS011;32083;47.360;9.650;2022-12-07T01:03:01;16.88;;;9.63;;
46377;SDS011;32083;47.360;9.650;2022-12-07T01:05:27;10.20;;;8.73;;
46377;SDS011;32083;47.360;9.650;2022-12-07T01:07:53;14.05;;;8.95;;
46377;SDS011;32083;47.360;9.650;2022-12-07T01:10:18;9.70;;;7.53;;
46377;SDS011;32083;47.360;9.650;2022-12-07T01:12:44;12.00;;;7.72;;
46377;SDS011;32083;47.360;9.650;2022-12-07T01:15:10;8.85;;;6.68;;
46377;SDS011;32083;47.360;9.650;2022-12-07T01:17:35;8.65;;;5.93;;
46377;SDS011;32083;47.360;9.650;2022-12-07T01:20:01;9.05;;;7.45;;
46377;SDS011;32083;47.360;9.650;2022-12-07T01:22:27;7.70;;;6.80;;
46377;SDS011;32083;47.360;9.650;2022-12-07T01:24:53;9.48;;;7.20;;
46377;SDS011;32083;47.360;9.650;2022-12-07T01:27:19;8.05;;;6.75;;
46377;SDS011;32083;47.360;9.650;2022-12-07T01:29:45;8.68;;;6.30;;
46377;SDS011;32083;47.360;9.650;2022-12-07T01:32:10;10.57;;;6.95;;
46377;SDS011;32083;47.360;9.650;2022-12-07T01:34:36;8.15;;;6.82;;
46377;SDS011;32083;47.360;9.650;2022-12-07T01:37:02;9.13;;;6.55;;
46377;SDS011;32083;47.360;9.650;2022-12-07T01:39:28;9.88;;;8.10;;
46377;SDS011;32083;47.360;9.650;2022-12-07T01:41:53;7.85;;;6.45;;
46377;SDS011;32083;47.360;9.650;2022-12-07T01:44:26;10.73;;;8.68;;
46377;SDS011;32083;47.360;9.650;2022-12-07T01:47:01;9.82;;;7.30;;
46377;SDS011;32083;47.360;9.650;2022-12-07T01:49:33;10.50;;;7.75;;
46377;SDS011;32083;47.360;9.650;2022-12-07T01:54:43;10.73;;;7.57;;
46377;SDS011;32083;47.360;9.650;2022-12-07T01:57:10;11.15;;;7.40;;
46377;SDS011;32083;47.360;9.650;2022-12-07T01:59:38;9.70;;;7.22;;
46377;SDS011;32083;47.360;9.650;2022-12-07T02:02:06;9.90;;;6.93;;
46377;SDS011;32083;47.360;9.650;2022-12-07T02:07:04;7.65;;;6.22;;
46377;SDS011;32083;47.360;9.650;2022-12-07T02:09:31;9.38;;;7.82;;
46377;SDS011;32083;47.360;9.650;2022-12-07T02:11:56;9.13;;;7.80;;
46377;SDS011;32083;47.360;9.650;2022-12-07T02:14:22;10.82;;;7.40;;
46377;SDS011;32083;47.360;9.650;2022-12-07T02:16:52;9.77;;;6.63;;
46377;SDS011;32083;47.360;9.650;2022-12-07T02:24:57;9.05;;;7.78;;
46377;SDS011;32083;47.360;9.650;2022-12-07T02:30:40;10.18;;;8.00;;
46377;SDS011;32083;47.360;9.650;2022-12-07T02:33:17;9.55;;;7.45;;
46377;SDS011;32083;47.360;9.650;2022-12-07T02:35:59;11.90;;;8.40;;
46377;SDS011;32083;47.360;9.650;2022-12-07T02:38:37;12.00;;;8.75;;
46377;SDS011;32083;47.360;9.650;2022-12-07T02:41:10;13.67;;;8.43;;
46377;SDS011;32083;47.360;9.650;2022-12-07T02:46:18;11.07;;;8.65;;
46377;SDS011;32083;47.360;9.650;2022-12-07T02:48:51;10.57;;;7.82;;
46377;SDS011;32083;47.360;9.650;2022-12-07T02:51:19;9.45;;;7.85;;
46377;SDS011;32083;47.360;9.650;2022-12-07T02:53:46;12.10;;;8.25;;
46377;SDS011;32083;47.360;9.650;2022-12-07T03:02:57;10.65;;;7.63;;
46377;SDS011;32083;47.360;9.650;2022-12-07T03:13:06;9.55;;;6.72;;
46377;SDS011;32083;47.360;9.650;2022-12-07T03:18:27;9.70;;;7.38;;
46377;SDS011;32083;47.360;9.650;2022-12-07T03:20:57;10.23;;;7.95;;
46377;SDS011;32083;47.360;9.650;2022-12-07T03:23:26;10.50;;;7.38;;
46377;SDS011;32083;47.360;9.650;2022-12-07T03:25:55;21.33;;;12.98;;
46377;SDS011;32083;47.360;9.650;2022-12-07T03:28:27;12.52;;;8.98;;
46377;SDS011;32083;47.360;9.650;2022-12-07T03:33:29;10.45;;;6.90;;
46377;SDS011;32083;47.360;9.650;2022-12-07T03:36:08;10.93;;;7.55;;
46377;SDS011;32083;47.360;9.650;2022-12-07T03:44:08;12.23;;;8.45;;
46377;SDS011;32083;47.360;9.650;2022-12-07T03:46:48;8.88;;;6.93;;
46377;SDS011;32083;47.360;9.650;2022-12-07T03:49:27;7.90;;;7.10;;
46377;SDS011;32083;47.360;9.650;2022-12-07T03:54:39;8.10;;;6.97;;
46377;SDS011;32083;47.360;9.650;2022-12-07T03:57:11;10.45;;;6.95;;
46377;SDS011;32083;47.360;9.650;2022-12-07T03:59:37;9.18;;;7.57;;
46377;SDS011;32083;47.360;9.650;2022-12-07T04:02:05;11.35;;;7.57;;
46377;SDS011;32083;47.360;9.650;2022-12-07T04:04:32;8.85;;;6.60;;
46377;SDS011;32083;47.360;9.650;2022-12-07T04:06:59;9.38;;;7.55;;
46377;SDS011;32083;47.360;9.650;2022-12-07T04:09:25;10.30;;;7.95;;
46377;SDS011;32083;47.360;9.650;2022-12-07T04:11:51;9.43;;;7.70;;
46377;SDS011;32083;47.360;9.650;2022-12-07T04:14:16;8.02;;;7.18;;
46377;SDS011;32083;47.360;9.650;2022-12-07T04:19:15;9.02;;;7.22;;
46377;SDS011;32083;47.360;9.650;2022-12-07T04:21:42;9.80;;;7.50;;
46377;SDS011;32083;47.360;9.650;2022-12-07T04:24:08;11.25;;;7.63;;
46377;SDS011;32083;47.360;9.650;2022-12-07T04:26:34;9.65;;;7.55;;
46377;SDS011;32083;47.360;9.650;2022-12-07T04:29:00;9.95;;;7.63;;
46377;SDS011;32083;47.360;9.650;2022-12-07T04:31:25;10.00;;;7.72;;
46377;SDS011;32083;47.360;9.650;2022-12-07T04:33:51;11.25;;;8.60;;
46377;SDS011;32083;47.360;9.650;2022-12-07T04:36:17;8.85;;;7.03;;
46377;SDS011;32083;47.360;9.650;2022-12-07T04:38:44;10.20;;;8.38;;
46377;SDS011;32083;47.360;9.650;2022-12-07T04:41:10;14.32;;;8.77;;
46377;SDS011;32083;47.360;9.650;2022-12-07T04:43:36;8.27;;;7.00;;
46377;SDS011;32083;47.360;9.650;2022-12-07T04:46:02;10.32;;;8.07;;
46377;SDS011;32083;47.360;9.650;2022-12-07T04:48:28;14.13;;;7.88;;
46377;SDS011;32083;47.360;9.650;2022-12-07T04:50:54;10.90;;;7.93;;
46377;SDS011;32083;47.360;9.650;2022-12-07T04:53:20;10.40;;;7.78;;
46377;SDS011;32083;47.360;9.650;2022-12-07T04:55:45;9.25;;;7.18;;
46377;SDS011;32083;47.360;9.650;2022-12-07T04:58:12;9.38;;;7.47;;
46377;SDS011;32083;47.360;9.650;2022-12-07T05:00:38;10.90;;;7.88;;
46377;SDS011;32083;47.360;9.650;2022-12-07T05:03:04;10.30;;;7.55;;
46377;SDS011;32083;47.360;9.650;2022-12-07T05:05:30;10.68;;;8.40;;
46377;SDS011;32083;47.360;9.650;2022-12-07T05:07:56;10.30;;;8.05;;
46377;SDS011;32083;47.360;9.650;2022-12-07T05:10:22;10.00;;;7.82;;
46377;SDS011;32083;47.360;9.650;2022-12-07T05:12:49;11.60;;;8.95;;
46377;SDS011;32083;47.360;9.650;2022-12-07T05:15:15;11.23;;;9.27;;
46377;SDS011;32083;47.360;9.650;2022-12-07T05:17:41;11.25;;;9.15;;
46377;SDS011;32083;47.360;9.650;2022-12-07T05:20:07;10.73;;;9.00;;
46377;SDS011;32083;47.360;9.650;2022-12-07T05:22:33;12.75;;;10.15;;
46377;SDS011;32083;47.360;9.650;2022-12-07T05:24:59;14.88;;;10.68;;
46377;SDS011;32083;47.360;9.650;2022-12-07T05:27:25;16.52;;;11.85;;
46377;SDS011;32083;47.360;9.650;2022-12-07T05:29:51;17.55;;;12.75;;
46377;SDS011;32083;47.360;9.650;2022-12-07T05:32:16;15.93;;;11.48;;
46377;SDS011;32083;47.360;9.650;2022-12-07T05:34:43;13.40;;;11.10;;
46377;SDS011;32083;47.360;9.650;2022-12-07T05:37:09;14.93;;;11.63;;
46377;SDS011;32083;47.360;9.650;2022-12-07T05:39:34;16.40;;;11.55;;
46377;SDS011;32083;47.360;9.650;2022-12-07T05:42:00;16.23;;;11.98;;
46377;SDS011;32083;47.360;9.650;2022-12-07T05:44:42;19.00;;;12.90;;
46377;SDS011;32083;47.360;9.650;2022-12-07T05:47:10;14.95;;;12.02;;
46377;SDS011;32083;47.360;9.650;2022-12-07T05:49:36;14.18;;;10.45;;
46377;SDS011;32083;47.360;9.650;2022-12-07T05:52:02;14.82;;;11.52;;
46377;SDS011;32083;47.360;9.650;2022-12-07T05:54:28;18.60;;;12.55;;
46377;SDS011;32083;47.360;9.650;2022-12-07T05:56:54;15.77;;;11.57;;
46377;SDS011;32083;47.360;9.650;2022-12-07T05:59:20;12.40;;;9.50;;
46377;SDS011;32083;47.360;9.650;2022-12-07T06:01:50;10.65;;;8.73;;
46377;SDS011;32083;47.360;9.650;2022-12-07T06:04:16;12.68;;;9.15;;
46377;SDS011;32083;47.360;9.650;2022-12-07T06:06:42;10.40;;;9.23;;
46377;SDS011;32083;47.360;9.650;2022-12-07T06:09:08;11.18;;;8.50;;
46377;SDS011;32083;47.360;9.650;2022-12-07T06:11:33;11.73;;;9.43;;
46377;SDS011;32083;47.360;9.650;2022-12-07T06:14:18;11.30;;;8.10;;
46377;SDS011;32083;47.360;9.650;2022-12-07T06:16:43;12.25;;;8.95;;
46377;SDS011;32083;47.360;9.650;2022-12-07T06:19:09;10.27;;;9.05;;
46377;SDS011;32083;47.360;9.650;2022-12-07T06:21:35;12.85;;;9.75;;
46377;SDS011;32083;47.360;9.650;2022-12-07T06:24:01;16.02;;;11.07;;
46377;SDS011;32083;47.360;9.650;2022-12-07T06:26:27;16.30;;;9.85;;
46377;SDS011;32083;47.360;9.650;2022-12-07T06:28:52;13.05;;;9.00;;
46377;SDS011;32083;47.360;9.650;2022-12-07T06:31:18;11.55;;;9.60;;
46377;SDS011;32083;47.360;9.650;2022-12-07T06:33:45;13.65;;;9.65;;
46377;SDS011;32083;47.360;9.650;2022-12-07T06:36:11;17.33;;;10.40;;
46377;SDS011;32083;47.360;9.650;2022-12-07T06:38:38;15.73;;;10.77;;
46377;SDS011;32083;47.360;9.650;2022-12-07T06:41:04;15.35;;;10.38;;
46377;SDS011;32083;47.360;9.650;2022-12-07T06:43:31;13.48;;;10.82;;
46377;SDS011;32083;47.360;9.650;2022-12-07T06:45:57;16.25;;;10.90;;
46377;SDS011;32083;47.360;9.650;2022-12-07T06:48:22;16.17;;;10.48;;
46377;SDS011;32083;47.360;9.650;2022-12-07T06:50:48;13.88;;;11.05;;
46377;SDS011;32083;47.360;9.650;2022-12-07T06:53:14;18.13;;;11.18;;
46377;SDS011;32083;47.360;9.650;2022-12-07T06:55:40;13.15;;;10.75;;
46377;SDS011;32083;47.360;9.650;2022-12-07T06:58:06;13.57;;;11.18;;
46377;SDS011;32083;47.360;9.650;2022-12-07T07:00:32;17.65;;;10.77;;
46377;SDS011;32083;47.360;9.650;2022-12-07T07:03:00;14.02;;;10.73;;
46377;SDS011;32083;47.360;9.650;2022-12-07T07:05:26;15.75;;;11.98;;
46377;SDS011;32083;47.360;9.650;2022-12-07T07:07:52;11.98;;;10.30;;
46377;SDS011;32083;47.360;9.650;2022-12-07T07:10:18;12.98;;;11.05;;
46377;SDS011;32083;47.360;9.650;2022-12-07T07:12:44;14.80;;;10.75;;
46377;SDS011;32083;47.360;9.650;2022-12-07T07:15:10;13.98;;;11.57;;
46377;SDS011;32083;47.360;9.650;2022-12-07T07:17:37;16.27;;;12.07;;
46377;SDS011;32083;47.360;9.650;2022-12-07T07:20:03;16.35;;;11.48;;
46377;SDS011;32083;47.360;9.650;2022-12-07T07:22:30;15.07;;;12.18;;
46377;SDS011;32083;47.360;9.650;2022-12-07T07:24:55;16.00;;;12.10;;
46377;SDS011;32083;47.360;9.650;2022-12-07T07:27:21;16.27;;;11.98;;
46377;SDS011;32083;47.360;9.650;2022-12-07T07:29:47;14.88;;;11.38;;
46377;SDS011;32083;47.360;9.650;2022-12-07T07:32:13;16.35;;;12.07;;
46377;SDS011;32083;47.360;9.650;2022-12-07T07:34:39;20.85;;;13.93;;
46377;SDS011;32083;47.360;9.650;2022-12-07T07:37:05;15.73;;;11.80;;
46377;SDS011;32083;47.360;9.650;2022-12-07T07:39:31;16.25;;;12.80;;
46377;SDS011;32083;47.360;9.650;2022-12-07T07:41:57;16.90;;;12.38;;
46377;SDS011;32083;47.360;9.650;2022-12-07T07:44:23;18.08;;;12.32;;
46377;SDS011;32083;47.360;9.650;2022-12-07T07:46:48;17.83;;;12.25;;
46377;SDS011;32083;47.360;9.650;2022-12-07T07:49:14;16.52;;;11.73;;
46377;SDS011;32083;47.360;9.650;2022-12-07T07:51:40;15.63;;;10.68;;
46377;SDS011;32083;47.360;9.650;2022-12-07T07:54:06;16.80;;;12.05;;
46377;SDS011;32083;47.360;9.650;2022-12-07T07:56:32;18.73;;;13.13;;
46377;SDS011;32083;47.360;9.650;2022-12-07T07:58:58;15.07;;;12.13;;
46377;SDS011;32083;47.360;9.650;2022-12-07T08:01:24;16.85;;;12.80;;
46377;SDS011;32083;47.360;9.650;2022-12-07T08:03:50;17.48;;;11.25;;
46377;SDS011;32083;47.360;9.650;2022-12-07T08:06:16;19.52;;;14.23;;
46377;SDS011;32083;47.360;9.650;2022-12-07T08:08:42;20.08;;;13.85;;
46377;SDS011;32083;47.360;9.650;2022-12-07T08:11:08;15.63;;;12.02;;
46377;SDS011;32083;47.360;9.650;2022-12-07T08:13:35;16.80;;;12.07;;
46377;SDS011;32083;47.360;9.650;2022-12-07T08:16:05;19.70;;;12.40;;
46377;SDS011;32083;47.360;9.650;2022-12-07T08:18:39;16.35;;;12.82;;
46377;SDS011;32083;47.360;9.650;2022-12-07T08:21:07;16.88;;;11.85;;
46377;SDS011;32083;47.360;9.650;2022-12-07T08:23:35;14.98;;;11.35;;
46377;SDS011;32083;47.360;9.650;2022-12-07T08:26:02;21.75;;;12.90;;
46377;SDS011;32083;47.360;9.650;2022-12-07T08:28:30;14.55;;;10.18;;
46377;SDS011;32083;47.360;9.650;2022-12-07T08:31:00;13.38;;;10.07;;
46377;SDS011;32083;47.360;9.650;2022-12-07T08:33:27;15.23;;;10.73;;
46377;SDS011;32083;47.360;9.650;2022-12-07T08:35:53;14.63;;;10.35;;
46377;SDS011;32083;47.360;9.650;2022-12-07T08:38:19;16.30;;;10.43;;
46377;SDS011;32083;47.360;9.650;2022-12-07T08:40:52;18.40;;;12.93;;
46377;SDS011;32083;47.360;9.650;2022-12-07T08:43:22;18.10;;;12.95;;
46377;SDS011;32083;47.360;9.650;2022-12-07T08:45:50;19.33;;;12.70;;
46377;SDS011;32083;47.360;9.650;2022-12-07T08:48:25;17.70;;;13.13;;
46377;SDS011;32083;47.360;9.650;2022-12-07T08:50:51;17.73;;;12.57;;
46377;SDS011;32083;47.360;9.650;2022-12-07T08:53:17;16.30;;;13.60;;
46377;SDS011;32083;47.360;9.650;2022-12-07T08:55:44;16.95;;;12.25;;
46377;SDS011;32083;47.360;9.650;2022-12-07T08:58:11;17.23;;;12.57;;
46377;SDS011;32083;47.360;9.650;2022-12-07T09:00:37;19.55;;;14.60;;
46377;SDS011;32083;47.360;9.650;2022-12-07T09:03:02;19.75;;;14.57;;
46377;SDS011;32083;47.360;9.650;2022-12-07T09:05:28;16.83;;;12.25;;
46377;SDS011;32083;47.360;9.650;2022-12-07T09:07:55;19.90;;;15.20;;
46377;SDS011;32083;47.360;9.650;2022-12-07T09:10:24;17.67;;;13.88;;
46377;SDS011;32083;47.360;9.650;2022-12-07T09:12:51;17.55;;;13.38;;
46377;SDS011;32083;47.360;9.650;2022-12-07T09:15:17;18.67;;;12.55;;
46377;SDS011;32083;47.360;9.650;2022-12-07T09:17:43;14.80;;;11.65;;
46377;SDS011;32083;47.360;9.650;2022-12-07T09:20:09;13.98;;;12.00;;
46377;SDS011;32083;47.360;9.650;2022-12-07T09:22:35;18.95;;;11.52;;
46377;SDS011;32083;47.360;9.650;2022-12-07T09:25:01;17.02;;;12.52;;
46377;SDS011;32083;47.360;9.650;2022-12-07T09:27:28;16.17;;;12.40;;
46377;SDS011;32083;47.360;9.650;2022-12-07T09:29:54;17.52;;;13.88;;
46377;SDS011;32083;47.360;9.650;2022-12-07T09:32:20;16.90;;;12.77;;
46377;SDS011;32083;47.360;9.650;2022-12-07T09:34:46;19.40;;;12.18;;
46377;SDS011;32083;47.360;9.650;2022-12-07T09:37:12;17.23;;;12.73;;
46377;SDS011;32083;47.360;9.650;2022-12-07T09:39:38;16.88;;;12.25;;
46377;SDS011;32083;47.360;9.650;2022-12-07T09:42:05;17.65;;;12.98;;
46377;SDS011;32083;47.360;9.650;2022-12-07T09:44:32;15.23;;;12.57;;
46377;SDS011;32083;47.360;9.650;2022-12-07T09:47:00;16.77;;;12.43;;
46377;SDS011;32083;47.360;9.650;2022-12-07T09:49:30;15.15;;;11.57;;
46377;SDS011;32083;47.360;9.650;2022-12-07T09:55:01;14.15;;;11.27;;
46377;SDS011;32083;47.360;9.650;2022-12-07T09:57:29;15.80;;;11.77;;
46377;SDS011;32083;47.360;9.650;2022-12-07T09:59:59;19.45;;;13.27;;
46377;SDS011;32083;47.360;9.650;2022-12-07T10:02:36;17.33;;;12.27;;
46377;SDS011;32083;47.360;9.650;2022-12-07T10:05:04;18.25;;;13.05;;
46377;SDS011;32083;47.360;9.650;2022-12-07T10:07:32;17.35;;;12.68;;
46377;SDS011;32083;47.360;9.650;2022-12-07T10:09:58;16.85;;;12.73;;
46377;SDS011;32083;47.360;9.650;2022-12-07T10:12:24;18.45;;;12.85;;
46377;SDS011;32083;47.360;9.650;2022-12-07T10:14:58;19.80;;;14.30;;
46377;SDS011;32083;47.360;9.650;2022-12-07T10:17:32;20.10;;;12.82;;
46377;SDS011;32083;47.360;9.650;2022-12-07T10:22:52;22.30;;;13.75;;
46377;SDS011;32083;47.360;9.650;2022-12-07T10:25:19;20.75;;;15.18;;
46377;SDS011;32083;47.360;9.650;2022-12-07T10:28:19;18.67;;;14.20;;
46377;SDS011;32083;47.360;9.650;2022-12-07T10:30:46;17.58;;;12.70;;
46377;SDS011;32083;47.360;9.650;2022-12-07T10:36:18;20.02;;;15.18;;
46377;SDS011;32083;47.360;9.650;2022-12-07T10:39:14;19.45;;;15.07;;
46377;SDS011;32083;47.360;9.650;2022-12-07T10:41:56;22.55;;;15.48;;
46377;SDS011;32083;47.360;9.650;2022-12-07T10:44:29;21.42;;;17.13;;
46377;SDS011;32083;47.360;9.650;2022-12-07T10:52:09;24.02;;;17.38;;
46377;SDS011;32083;47.360;9.650;2022-12-07T10:57:18;25.20;;;16.13;;
46377;SDS011;32083;47.360;9.650;2022-12-07T11:00:25;25.20;;;17.08;;
46377;SDS011;32083;47.360;9.650;2022-12-07T11:03:15;23.48;;;16.88;;
46377;SDS011;32083;47.360;9.650;2022-12-07T11:05:53;26.85;;;15.27;;
46377;SDS011;32083;47.360;9.650;2022-12-07T11:09:01;17.50;;;12.77;;
46377;SDS011;32083;47.360;9.650;2022-12-07T11:11:36;17.83;;;13.57;;
46377;SDS011;32083;47.360;9.650;2022-12-07T11:14:18;19.85;;;14.32;;
46377;SDS011;32083;47.360;9.650;2022-12-07T11:17:18;18.40;;;13.77;;
46377;SDS011;32083;47.360;9.650;2022-12-07T11:20:05;17.95;;;13.18;;
46377;SDS011;32083;47.360;9.650;2022-12-07T11:37:47;17.13;;;12.80;;
46377;SDS011;32083;47.360;9.650;2022-12-07T11:40:24;18.05;;;12.77;;
46377;SDS011;32083;47.360;9.650;2022-12-07T11:43:00;20.88;;;12.65;;
46377;SDS011;32083;47.360;9.650;2022-12-07T11:45:48;17.98;;;11.20;;
46377;SDS011;32083;47.360;9.650;2022-12-07T11:48:40;18.27;;;12.20;;
46377;SDS011;32083;47.360;9.650;2022-12-07T11:51:11;23.38;;;12.88;;
46377;SDS011;32083;47.360;9.650;2022-12-07T11:53:46;20.05;;;11.73;;
46377;SDS011;32083;47.360;9.650;2022-12-07T11:56:21;15.95;;;11.57;;
46377;SDS011;32083;47.360;9.650;2022-12-07T12:01:47;18.40;;;13.25;;
46377;SDS011;32083;47.360;9.650;2022-12-07T12:07:23;16.13;;;11.95;;
46377;SDS011;32083;47.360;9.650;2022-12-07T12:09:59;17.02;;;11.57;;
46377;SDS011;32083;47.360;9.650;2022-12-07T12:12:40;17.58;;;11.88;;
46377;SDS011;32083;47.360;9.650;2022-12-07T12:21:12;14.18;;;11.25;;
46377;SDS011;32083;47.360;9.650;2022-12-07T12:23:43;16.77;;;11.30;;
46377;SDS011;32083;47.360;9.650;2022-12-07T12:26:18;18.88;;;12.90;;
46377;SDS011;32083;47.360;9.650;2022-12-07T12:29:05;17.35;;;11.27;;
46377;SDS011;32083;47.360;9.650;2022-12-07T12:31:43;19.08;;;13.40;;
46377;SDS011;32083;47.360;9.650;2022-12-07T12:36:55;16.38;;;11.30;;
46377;SDS011;32083;47.360;9.650;2022-12-07T12:39:21;15.65;;;10.55;;
46377;SDS011;32083;47.360;9.650;2022-12-07T12:54:19;19.02;;;12.10;;
46377;SDS011;32083;47.360;9.650;2022-12-07T13:01:47;18.20;;;11.43;;
46377;SDS011;32083;47.360;9.650;2022-12-07T13:04:22;18.30;;;10.27;;
46377;SDS011;32083;47.360;9.650;2022-12-07T13:06:55;14.63;;;10.73;;
46377;SDS011;32083;47.360;9.650;2022-12-07T13:09:24;20.40;;;11.45;;
46377;SDS011;32083;47.360;9.650;2022-12-07T13:12:13;18.00;;;10.93;;
46377;SDS011;32083;47.360;9.650;2022-12-07T13:14:41;16.50;;;10.90;;
46377;SDS011;32083;47.360;9.650;2022-12-07T13:19:56;18.63;;;11.63;;
46377;SDS011;32083;47.360;9.650;2022-12-07T13:24:55;22.77;;;12.00;;
46377;SDS011;32083;47.360;9.650;2022-12-07T13:27:24;19.20;;;11.05;;
46377;SDS011;32083;47.360;9.650;2022-12-07T13:29:52;17.88;;;11.43;;
46377;SDS011;32083;47.360;9.650;2022-12-07T13:32:25;18.85;;;11.90;;
46377;SDS011;32083;47.360;9.650;2022-12-07T13:34:53;16.27;;;11.65;;
46377;SDS011;32083;47.360;9.650;2022-12-07T13:37:29;17.67;;;10.73;;
46377;SDS011;32083;47.360;9.650;2022-12-07T13:39:58;17.73;;;10.65;;
46377;SDS011;32083;47.360;9.650;2022-12-07T13:42:33;16.13;;;10.32;;
46377;SDS011;32083;47.360;9.650;2022-12-07T13:45:22;20.40;;;10.88;;
46377;SDS011;32083;47.360;9.650;2022-12-07T13:48:14;16.73;;;10.65;;
46377;SDS011;32083;47.360;9.650;2022-12-07T13:50:48;18.17;;;12.60;;
46377;SDS011;32083;47.360;9.650;2022-12-07T13:53:21;14.35;;;10.13;;
46377;SDS011;32083;47.360;9.650;2022-12-07T13:55:47;16.10;;;10.10;;
46377;SDS011;32083;47.360;9.650;2022-12-07T13:58:14;15.85;;;10.80;;
46377;SDS011;32083;47.360;9.650;2022-12-07T14:00:40;16.75;;;11.15;;
46377;SDS011;32083;47.360;9.650;2022-12-07T14:05:40;18.10;;;11.30;;
46377;SDS011;32083;47.360;9.650;2022-12-07T14:16:54;20.63;;;11.02;;
46377;SDS011;32083;47.360;9.650;2022-12-07T14:18:55;19.25;;;12.27;;
46377;SDS011;32083;47.360;9.650;2022-12-07T14:21:24;23.02;;;15.98;;
46377;SDS011;32083;47.360;9.650;2022-12-07T14:26:50;21.55;;;15.00;;
46377;SDS011;32083;47.360;9.650;2022-12-07T14:32:01;16.63;;;12.07;;
46377;SDS011;32083;47.360;9.650;2022-12-07T14:34:57;24.23;;;13.55;;
46377;SDS011;32083;47.360;9.650;2022-12-07T14:37:25;16.88;;;11.30;;
46377;SDS011;32083;47.360;9.650;2022-12-07T14:39:52;18.15;;;12.02;;
46377;SDS011;32083;47.360;9.650;2022-12-07T14:42:18;16.95;;;12.40;;
46377;SDS011;32083;47.360;9.650;2022-12-07T14:44:44;14.73;;;10.95;;
46377;SDS011;32083;47.360;9.650;2022-12-07T14:47:10;20.95;;;13.80;;
46377;SDS011;32083;47.360;9.650;2022-12-07T14:49:37;19.75;;;11.43;;
46377;SDS011;32083;47.360;9.650;2022-12-07T14:52:03;17.15;;;11.65;;
46377;SDS011;32083;47.360;9.650;2022-12-07T14:54:31;23.98;;;12.23;;
46377;SDS011;32083;47.360;9.650;2022-12-07T14:56:58;15.85;;;10.27;;
46377;SDS011;32083;47.360;9.650;2022-12-07T14:59:24;19.15;;;11.82;;
46377;SDS011;32083;47.360;9.650;2022-12-07T15:01:50;15.98;;;10.82;;
46377;SDS011;32083;47.360;9.650;2022-12-07T15:04:16;18.33;;;12.93;;
46377;SDS011;32083;47.360;9.650;2022-12-07T15:06:42;20.85;;;13.25;;
46377;SDS011;32083;47.360;9.650;2022-12-07T15:09:19;19.92;;;13.95;;
46377;SDS011;32083;47.360;9.650;2022-12-07T15:11:45;24.45;;;15.32;;
46377;SDS011;32083;47.360;9.650;2022-12-07T15:14:10;22.90;;;14.88;;
46377;SDS011;32083;47.360;9.650;2022-12-07T15:16:38;22.25;;;15.38;;
46377;SDS011;32083;47.360;9.650;2022-12-07T15:19:09;26.63;;;15.57;;
46377;SDS011;32083;47.360;9.650;2022-12-07T15:21:40;19.50;;;13.82;;
46377;SDS011;32083;47.360;9.650;2022-12-07T15:24:08;19.33;;;14.35;;
46377;SDS011;32083;47.360;9.650;2022-12-07T15:26:37;21.15;;;13.30;;
46377;SDS011;32083;47.360;9.650;2022-12-07T15:29:05;23.88;;;15.60;;
46377;SDS011;32083;47.360;9.650;2022-12-07T15:31:31;23.58;;;15.32;;
46377;SDS011;32083;47.360;9.650;2022-12-07T15:33:58;21.25;;;14.27;;
46377;SDS011;32083;47.360;9.650;2022-12-07T15:36:25;24.00;;;16.05;;
46377;SDS011;32083;47.360;9.650;2022-12-07T15:38:52;25.15;;;14.95;;
46377;SDS011;32083;47.360;9.650;2022-12-07T15:41:19;21.38;;;15.15;;
46377;SDS011;32083;47.360;9.650;2022-12-07T15:43:45;22.35;;;14.90;;
46377;SDS011;32083;47.360;9.650;2022-12-07T15:46:34;26.15;;;16.55;;
46377;SDS011;32083;47.360;9.650;2022-12-07T15:49:02;23.58;;;15.40;;
46377;SDS011;32083;47.360;9.650;2022-12-07T15:51:29;26.27;;;16.13;;
46377;SDS011;32083;47.360;9.650;2022-12-07T15:53:56;29.38;;;16.83;;
46377;SDS011;32083;47.360;9.650;2022-12-07T15:56:23;24.35;;;16.55;;
46377;SDS011;32083;47.360;9.650;2022-12-07T15:58:49;24.13;;;15.88;;
46377;SDS011;32083;47.360;9.650;2022-12-07T16:01:16;25.75;;;16.77;;
46377;SDS011;32083;47.360;9.650;2022-12-07T16:03:44;23.33;;;16.00;;
46377;SDS011;32083;47.360;9.650;2022-12-07T16:06:10;31.27;;;17.05;;
46377;SDS011;32083;47.360;9.650;2022-12-07T16:08:41;23.33;;;15.38;;
46377;SDS011;32083;47.360;9.650;2022-12-07T16:11:08;22.73;;;16.98;;
46377;SDS011;32083;47.360;9.650;2022-12-07T16:13:34;20.70;;;14.50;;
46377;SDS011;32083;47.360;9.650;2022-12-07T16:16:04;24.98;;;15.23;;
46377;SDS011;32083;47.360;9.650;2022-12-07T16:18:35;25.27;;;17.60;;
46377;SDS011;32083;47.360;9.650;2022-12-07T16:21:01;27.60;;;16.38;;
46377;SDS011;32083;47.360;9.650;2022-12-07T16:23:28;26.58;;;17.42;;
46377;SDS011;32083;47.360;9.650;2022-12-07T16:25:54;33.22;;;19.42;;
46377;SDS011;32083;47.360;9.650;2022-12-07T16:28:20;27.88;;;19.55;;
46377;SDS011;32083;47.360;9.650;2022-12-07T16:30:46;23.52;;;15.93;;
46377;SDS011;32083;47.360;9.650;2022-12-07T16:33:12;23.98;;;16.80;;
46377;SDS011;32083;47.360;9.650;2022-12-07T16:35:38;28.15;;;18.90;;
46377;SDS011;32083;47.360;9.650;2022-12-07T16:38:07;23.45;;;17.83;;
46377;SDS011;32083;47.360;9.650;2022-12-07T16:40:33;24.40;;;16.92;;
46377;SDS011;32083;47.360;9.650;2022-12-07T16:42:59;28.88;;;18.48;;
46377;SDS011;32083;47.360;9.650;2022-12-07T16:45:24;30.77;;;20.80;;
46377;SDS011;32083;47.360;9.650;2022-12-07T16:47:50;29.13;;;19.73;;
46377;SDS011;32083;47.360;9.650;2022-12-07T16:50:16;27.83;;;19.20;;